Terminal Aerodrome Forecast
Issued by NWS

Current Version | Previous Version | Text Only | Print | Product List | Glossary Off
Versions: 1 2 3 4 5 6 7 8 9 10 11 12 13 14 15 16 17 18 19 20

000
FTUS41 KPBZ 190300 AAA
TAFMGW
TAF AMD
KMGW 190321Z 1903/1924 24005KT 4SM -SN OVC015
     FM190900 27004KT P6SM OVC015
     FM192100 29003KT P6SM OVC025=

USA.gov is the U.S. government's official web portal to all federal, state and local government web resources and services.